Florianopolis, Brazil
Current Conditions -  °F | °C
As of 11:00 AM on Tuesday 21 Oct 2014 (Local Time) from SBFL Reporting Station
Broken Clouds Broken Clouds  
Wind Chill: 70°   Ceiling: 4000
Heat Index: 70°   Visibility: 6mi
Dew Point: 57°   Wind: 10mph
Humidity: 64%   Direction: 130°SE
Pressure: 30.21"   Gusts: NA
Location:  27.6°S, 48.54°W
Report Text: SBFL 211300Z 13009KT 9999 SCT030 BKN040 21/14 Q1023
Loading
Personal Weather Stations






























Interactive Weather Map
Tropical Storm Tracking
New forecast layout! Learn more

10-Day Weather Forecast

Advertisements
Track Severe Weather on mobile